createdAt,value
2019-04-29T00:01:15.838Z,21.63
2019-04-29T00:03:44.446Z,22.23
2019-04-29T00:06:13.102Z,18.40
2019-04-29T00:08:41.907Z,18.50
2019-04-29T00:11:10.599Z,19.70
2019-04-29T00:13:39.146Z,19.23
2019-04-29T00:16:25.448Z,20.80
2019-04-29T00:19:01.300Z,20.93
2019-04-29T00:21:30.210Z,20.63
2019-04-29T00:24:04.165Z,20.13
2019-04-29T00:26:29.320Z,19.90
2019-04-29T00:28:58.006Z,18.77
2019-04-29T00:31:26.604Z,18.20
2019-04-29T00:33:55.302Z,20.67
2019-04-29T00:36:25.819Z,22.20
2019-04-29T00:38:56.240Z,23.13
2019-04-29T00:41:35.557Z,23.33
2019-04-29T00:44:05.658Z,24.27
2019-04-29T00:46:34.247Z,21.07
2019-04-29T00:49:03.127Z,23.10
2019-04-29T00:51:31.704Z,21.27
2019-04-29T00:54:01.955Z,25.53
2019-04-29T00:56:30.636Z,23.47
2019-04-29T00:58:59.157Z,26.47
2019-04-29T01:01:27.810Z,25.70
2019-04-29T01:03:56.379Z,22.67
2019-04-29T01:06:24.939Z,24.50
2019-04-29T01:08:53.542Z,25.97
2019-04-29T01:11:22.102Z,25.17
2019-04-29T01:13:50.709Z,25.63
2019-04-29T01:16:19.374Z,23.30
2019-04-29T01:18:48.037Z,27.13
2019-04-29T01:21:16.555Z,25.40
2019-04-29T01:23:45.145Z,26.37
2019-04-29T01:26:31.538Z,28.43
2019-04-29T01:29:01.656Z,27.40
2019-04-29T01:31:31.572Z,24.13
2019-04-29T01:34:01.896Z,26.93
2019-04-29T01:36:35.192Z,26.30
2019-04-29T01:39:05.595Z,25.43
2019-04-29T01:41:50.567Z,22.43
2019-04-29T01:44:20.921Z,25.63
2019-04-29T01:46:49.463Z,24.43
2019-04-29T01:49:18.064Z,20.27
2019-04-29T01:51:46.723Z,29.27
2019-04-29T01:54:15.302Z,24.33
2019-04-29T01:56:44.013Z,25.43
2019-04-29T01:59:12.433Z,24.27
2019-04-29T02:01:41.066Z,25.13
2019-04-29T02:04:09.665Z,24.30
2019-04-29T02:06:38.122Z,27.03
2019-04-29T02:09:10.185Z,29.00
2019-04-29T02:11:40.023Z,25.63
2019-04-29T02:14:08.711Z,26.27
2019-04-29T02:16:37.206Z,26.97
2019-04-29T02:19:05.654Z,27.33
2019-04-29T02:21:34.214Z,29.40
2019-04-29T02:24:07.118Z,28.90
2019-04-29T02:26:35.694Z,27.53
2019-04-29T02:29:04.474Z,30.83
2019-04-29T02:31:38.848Z,28.77
2019-04-29T02:34:07.932Z,33.03
2019-04-29T02:36:36.331Z,29.07
2019-04-29T02:39:11.926Z,32.03
2019-04-29T02:41:54.145Z,27.87
2019-04-29T02:44:22.741Z,29.53
2019-04-29T02:46:51.293Z,31.40
2019-04-29T02:49:19.955Z,31.13
2019-04-29T02:51:53.005Z,29.53
2019-04-29T02:54:22.862Z,32.50
2019-04-29T02:57:08.478Z,27.13
2019-04-29T02:59:44.626Z,27.50
2019-04-29T03:02:17.786Z,26.87
2019-04-29T03:04:50.672Z,28.60
2019-04-29T03:07:19.122Z,30.40
2019-04-29T03:09:47.605Z,25.37
2019-04-29T03:12:16.245Z,26.17
2019-04-29T03:14:44.714Z,26.60
2019-04-29T03:17:13.207Z,26.17
2019-04-29T03:19:59.801Z,26.60
2019-04-29T03:22:28.451Z,27.07
2019-04-29T03:24:56.947Z,24.77
2019-04-29T03:27:25.568Z,24.20
2019-04-29T03:29:54.203Z,23.03
2019-04-29T03:32:23.739Z,22.90
2019-04-29T03:34:52.243Z,22.93
2019-04-29T03:37:20.702Z,26.20
2019-04-29T03:39:49.187Z,23.47
2019-04-29T03:42:17.749Z,25.23
2019-04-29T03:44:46.351Z,21.30
2019-04-29T03:47:18.439Z,23.27
2019-04-29T03:49:45.116Z,23.10
2019-04-29T03:52:13.616Z,22.03
2019-04-29T03:54:42.221Z,22.03
2019-04-29T03:57:12.567Z,26.57
2019-04-29T03:59:42.842Z,27.23
2019-04-29T04:02:13.089Z,27.23
2019-04-29T04:05:00.714Z,26.60
2019-04-29T04:07:42.733Z,30.30
2019-04-29T04:10:11.365Z,27.10
2019-04-29T04:12:39.994Z,25.07
2019-04-29T04:15:08.643Z,24.90
2019-04-29T04:17:44.843Z,25.17
2019-04-29T04:20:14.225Z,28.80
2019-04-29T04:22:48.980Z,26.43
2019-04-29T04:25:18.591Z,26.53
2019-04-29T04:27:47.948Z,28.13
2019-04-29T04:30:16.483Z,29.37
2019-04-29T04:32:45.011Z,34.07
2019-04-29T04:35:15.788Z,28.03
2019-04-29T04:37:44.243Z,29.43
2019-04-29T04:40:14.410Z,31.23
2019-04-29T04:42:42.924Z,29.70
2019-04-29T04:45:11.998Z,33.90
2019-04-29T04:47:40.508Z,30.30
2019-04-29T04:50:09.130Z,33.30
2019-04-29T04:52:37.740Z,31.80
2019-04-29T04:55:08.090Z,33.30
2019-04-29T04:57:36.726Z,29.00
2019-04-29T05:00:08.941Z,35.63
2019-04-29T05:02:37.426Z,33.93
2019-04-29T05:05:07.546Z,29.47
2019-04-29T05:07:36.040Z,32.17
2019-04-29T05:10:05.638Z,30.50
2019-04-29T05:12:37.099Z,29.10
2019-04-29T05:15:05.730Z,34.50
2019-04-29T05:17:35.800Z,30.07
2019-04-29T05:20:06.064Z,30.80
2019-04-29T05:22:34.704Z,32.23
2019-04-29T05:25:04.325Z,31.10
2019-04-29T05:27:32.834Z,38.80
2019-04-29T05:30:01.478Z,34.33
2019-04-29T05:32:30.132Z,38.70
2019-04-29T05:35:06.486Z,32.93
2019-04-29T05:37:56.406Z,31.63
2019-04-29T05:40:40.018Z,37.20
2019-04-29T05:43:10.247Z,34.83
2019-04-29T05:45:52.642Z,32.73
2019-04-29T05:48:21.466Z,35.23
2019-04-29T05:51:07.013Z,36.67
2019-04-29T05:53:42.899Z,40.73
2019-04-29T05:56:11.338Z,33.00
2019-04-29T05:58:39.944Z,31.80
2019-04-29T06:01:10.100Z,34.37
2019-04-29T06:03:39.810Z,35.87
2019-04-29T06:06:08.458Z,36.70
2019-04-29T06:08:39.238Z,34.23
2019-04-29T06:11:07.216Z,36.27
2019-04-29T06:13:35.755Z,39.87
2019-04-29T06:16:04.225Z,35.63
2019-04-29T06:18:32.863Z,56.97
2019-04-29T06:21:08.983Z,36.33
2019-04-29T06:23:31.717Z,40.70
2019-04-29T06:26:00.320Z,37.53
2019-04-29T06:28:28.939Z,35.90
2019-04-29T06:30:57.466Z,37.57
2019-04-29T06:33:28.997Z,41.03
2019-04-29T06:35:57.152Z,45.20
2019-04-29T06:38:25.909Z,39.30
2019-04-29T06:40:54.706Z,44.80
2019-04-29T06:43:24.558Z,38.90
2019-04-29T06:45:53.790Z,39.00
2019-04-29T06:48:30.462Z,42.23
2019-04-29T06:50:59.060Z,45.30
2019-04-29T06:53:27.734Z,41.10
2019-04-29T06:55:56.658Z,46.20
2019-04-29T06:58:25.493Z,41.77
2019-04-29T07:00:55.964Z,49.20
2019-04-29T07:03:26.588Z,48.77
2019-04-29T07:05:56.290Z,40.03
2019-04-29T07:08:25.923Z,45.17
2019-04-29T07:10:55.973Z,46.67
2019-04-29T07:13:25.222Z,43.60
2019-04-29T07:15:53.945Z,44.10
2019-04-29T07:18:22.436Z,49.93
2019-04-29T07:20:50.974Z,49.23
2019-04-29T07:23:20.114Z,49.63
2019-04-29T07:25:48.955Z,48.77
2019-04-29T07:28:18.623Z,54.43
2019-04-29T07:31:01.274Z,47.70
2019-04-29T07:33:22.642Z,51.13
2019-04-29T07:35:49.625Z,47.47
2019-04-29T07:38:18.421Z,45.93
2019-04-29T07:40:46.981Z,47.43
2019-04-29T07:43:15.481Z,43.87
2019-04-29T07:46:05.616Z,46.37
2019-04-29T07:48:36.818Z,38.90
2019-04-29T07:51:05.975Z,36.17
2019-04-29T07:53:44.542Z,40.77
2019-04-29T07:56:06.499Z,45.60
2019-04-29T07:58:35.376Z,42.20
2019-04-29T08:01:04.011Z,42.17
2019-04-29T08:03:32.717Z,43.40
2019-04-29T08:06:01.286Z,46.83
2019-04-29T08:08:30.042Z,43.23
2019-04-29T08:10:58.696Z,57.90
2019-04-29T08:13:27.554Z,45.33
2019-04-29T08:15:56.231Z,41.63
2019-04-29T08:18:24.651Z,44.97
2019-04-29T08:20:53.131Z,45.73
2019-04-29T08:23:21.636Z,44.43
2019-04-29T08:25:51.046Z,41.90
2019-04-29T08:28:19.706Z,40.03
2019-04-29T08:30:48.206Z,42.37
2019-04-29T08:33:16.704Z,38.43
2019-04-29T08:35:46.847Z,44.80
2019-04-29T08:38:15.617Z,46.97
2019-04-29T08:40:45.070Z,45.07
2019-04-29T08:43:32.136Z,46.73
2019-04-29T08:46:08.091Z,36.57
2019-04-29T08:48:36.569Z,43.40
2019-04-29T08:51:05.163Z,44.50
2019-04-29T08:53:33.789Z,35.20
2019-04-29T08:56:05.687Z,39.13
2019-04-29T08:58:32.759Z,32.67
2019-04-29T09:01:01.510Z,31.83
2019-04-29T09:03:40.087Z,34.03
2019-04-29T09:06:05.645Z,35.13
2019-04-29T09:08:33.009Z,39.47
2019-04-29T09:11:00.812Z,35.83
2019-04-29T09:13:31.297Z,43.30
2019-04-29T09:15:59.887Z,32.93
2019-04-29T09:18:28.677Z,37.77
2019-04-29T09:20:57.183Z,35.63
2019-04-29T09:23:30.223Z,35.80
2019-04-29T09:26:06.610Z,35.10
2019-04-29T09:28:35.297Z,34.30
2019-04-29T09:31:04.014Z,35.03
2019-04-29T09:33:32.485Z,33.60
2019-04-29T09:36:01.063Z,32.93
2019-04-29T09:38:32.531Z,31.27
2019-04-29T09:41:04.546Z,36.73
2019-04-29T09:43:40.754Z,43.27
2019-04-29T09:46:14.486Z,35.23
2019-04-29T09:48:43.033Z,33.10
2019-04-29T09:51:17.761Z,33.93
2019-04-29T09:53:41.767Z,29.37
2019-04-29T09:56:10.456Z,31.47
2019-04-29T09:58:38.973Z,31.80
2019-04-29T10:01:21.378Z,30.70
2019-04-29T10:03:54.739Z,30.40
2019-04-29T10:06:40.254Z,27.50
2019-04-29T10:09:09.723Z,30.00
2019-04-29T10:11:38.441Z,25.37
2019-04-29T10:14:07.424Z,26.37
2019-04-29T10:16:37.746Z,25.67
2019-04-29T10:19:16.754Z,25.07
2019-04-29T10:21:45.555Z,26.97
2019-04-29T10:24:14.668Z,26.03
2019-04-29T10:26:43.388Z,23.90
2019-04-29T10:29:18.618Z,23.40
2019-04-29T10:31:46.991Z,25.67
2019-04-29T10:34:16.001Z,23.00
2019-04-29T10:36:44.777Z,28.07
2019-04-29T10:39:24.261Z,26.30
2019-04-29T10:41:53.160Z,23.47
2019-04-29T10:44:39.772Z,22.33
2019-04-29T10:47:22.377Z,21.20
2019-04-29T10:49:52.494Z,21.53
2019-04-29T10:52:23.208Z,21.77
2019-04-29T10:54:55.428Z,24.27
2019-04-29T10:57:22.178Z,24.57
2019-04-29T10:59:52.402Z,19.60
2019-04-29T11:02:22.776Z,18.20
2019-04-29T11:04:53.024Z,19.50
2019-04-29T11:07:35.085Z,17.83
2019-04-29T11:10:08.081Z,20.97
2019-04-29T11:12:36.526Z,20.87
2019-04-29T11:15:09.911Z,22.93
2019-04-29T11:17:39.755Z,24.27
2019-04-29T11:20:11.216Z,20.57
2019-04-29T11:22:45.697Z,19.00
2019-04-29T11:25:15.976Z,18.90
2019-04-29T11:27:46.109Z,18.93
2019-04-29T11:30:18.883Z,20.23
2019-04-29T11:33:00.124Z,19.97
2019-04-29T11:35:35.672Z,19.67
2019-04-29T11:38:04.836Z,17.20
2019-04-29T11:40:43.040Z,17.10
2019-04-29T11:43:05.864Z,18.40
2019-04-29T11:45:38.631Z,15.20
2019-04-29T11:48:05.141Z,14.87
2019-04-29T11:50:54.767Z,17.00
2019-04-29T11:53:21.092Z,19.27
2019-04-29T11:55:52.668Z,26.07
2019-04-29T11:58:24.773Z,21.40
2019-04-29T12:00:57.733Z,17.40
2019-04-29T12:03:40.276Z,14.17
2019-04-29T12:06:16.411Z,14.90
2019-04-29T12:08:48.179Z,15.63
2019-04-29T12:11:14.939Z,15.23
2019-04-29T12:13:45.284Z,12.37
2019-04-29T12:16:15.385Z,13.53
2019-04-29T12:18:45.565Z,14.03
2019-04-29T12:21:33.654Z,13.87
2019-04-29T12:24:02.230Z,11.03
2019-04-29T12:26:34.950Z,13.13
2019-04-29T12:29:01.132Z,13.00
2019-04-29T12:31:31.219Z,10.47
2019-04-29T12:34:03.825Z,11.37
2019-04-29T12:36:36.701Z,12.23
2019-04-29T12:39:07.161Z,11.33
2019-04-29T12:41:48.961Z,11.17
2019-04-29T12:44:17.536Z,11.57
2019-04-29T12:46:53.857Z,9.53
2019-04-29T12:49:22.350Z,8.97
2019-04-29T12:51:50.890Z,9.37
2019-04-29T12:54:19.534Z,9.23
2019-04-29T12:56:49.860Z,10.87
2019-04-29T12:59:18.455Z,10.03
2019-04-29T13:02:04.944Z,10.17
2019-04-29T13:04:45.148Z,11.30
2019-04-29T13:07:22.379Z,10.80
2019-04-29T13:09:52.553Z,8.53
2019-04-29T13:12:21.069Z,8.73
2019-04-29T13:15:12.301Z,11.73
2019-04-29T13:18:03.189Z,9.90
2019-04-29T13:20:22.390Z,11.37
2019-04-29T13:22:51.062Z,12.10
2019-04-29T13:25:20.724Z,12.00
2019-04-29T13:27:50.715Z,11.90
2019-04-29T13:30:19.774Z,10.93
2019-04-29T13:32:48.329Z,10.13
2019-04-29T13:35:16.994Z,10.67
2019-04-29T13:37:45.514Z,9.97
2019-04-29T13:40:14.267Z,12.60
2019-04-29T13:42:48.540Z,10.57
2019-04-29T13:45:20.062Z,11.17
2019-04-29T13:47:50.478Z,10.77
2019-04-29T13:50:39.746Z,12.47
2019-04-29T13:53:06.633Z,9.10
2019-04-29T13:55:47.688Z,9.73
2019-04-29T13:58:05.617Z,9.27
2019-04-29T14:00:36.503Z,10.10
2019-04-29T14:03:11.104Z,11.50
2019-04-29T14:05:38.090Z,13.30
2019-04-29T14:08:09.353Z,11.33
2019-04-29T14:10:38.081Z,14.43
2019-04-29T14:13:15.224Z,11.90
2019-04-29T14:15:40.395Z,12.00
2019-04-29T14:18:11.711Z,14.77
2019-04-29T14:20:37.678Z,12.70
2019-04-29T14:23:06.438Z,12.40
2019-04-29T14:25:35.081Z,13.27
2019-04-29T14:28:03.650Z,13.40
2019-04-29T14:30:38.833Z,13.00
2019-04-29T14:33:03.424Z,14.97
2019-04-29T14:35:48.579Z,13.40
2019-04-29T14:38:15.782Z,10.67
2019-04-29T14:40:44.958Z,18.53
2019-04-29T14:43:32.302Z,12.73
2019-04-29T14:46:12.409Z,12.93
2019-04-29T14:48:42.734Z,11.83
2019-04-29T14:51:11.207Z,11.63
2019-04-29T14:53:39.918Z,11.57
2019-04-29T14:56:08.441Z,13.37
2019-04-29T14:58:37.200Z,13.13
2019-04-29T15:01:08.713Z,15.50
2019-04-29T15:03:55.450Z,18.27
2019-04-29T15:06:24.072Z,14.77
2019-04-29T15:08:52.700Z,15.37
2019-04-29T15:11:31.545Z,17.73
2019-04-29T15:13:54.908Z,16.03
2019-04-29T15:16:25.278Z,30.73
2019-04-29T15:19:12.884Z,20.23
2019-04-29T15:21:46.112Z,18.50
2019-04-29T15:24:17.496Z,20.60
2019-04-29T15:26:45.375Z,20.47
2019-04-29T15:29:13.953Z,22.90
2019-04-29T15:31:46.507Z,21.30
2019-04-29T15:34:14.498Z,23.30
2019-04-29T15:36:43.039Z,25.33
2019-04-29T15:39:12.418Z,21.03
2019-04-29T15:41:41.720Z,28.43
2019-04-29T15:44:18.953Z,24.13
2019-04-29T15:46:47.957Z,28.63
2019-04-29T15:49:11.233Z,27.50
2019-04-29T15:51:43.989Z,32.90
2019-04-29T15:54:14.420Z,39.87
2019-04-29T15:56:40.548Z,33.90
2019-04-29T15:59:10.319Z,37.93
2019-04-29T16:01:41.559Z,35.87
2019-04-29T16:04:10.837Z,34.80
2019-04-29T16:06:53.473Z,35.60
2019-04-29T16:09:30.379Z,30.13
2019-04-29T16:12:11.486Z,33.00
2019-04-29T16:14:34.491Z,33.13
2019-04-29T16:17:03.082Z,29.60
2019-04-29T16:19:31.598Z,35.20
2019-04-29T16:22:00.137Z,28.63
2019-04-29T16:24:37.150Z,27.53
2019-04-29T16:27:01.209Z,27.93
2019-04-29T16:29:28.959Z,28.03
2019-04-29T16:32:02.378Z,24.50
2019-04-29T16:34:27.686Z,23.67
2019-04-29T16:36:56.239Z,20.10
2019-04-29T16:39:24.894Z,26.13
2019-04-29T16:41:58.289Z,25.43
2019-04-29T16:44:35.391Z,23.00
2019-04-29T16:46:56.293Z,27.23
2019-04-29T16:49:24.909Z,48.13
2019-04-29T16:51:55.630Z,29.13
2019-04-29T16:54:28.239Z,29.87
2019-04-29T16:56:53.851Z,26.13
2019-04-29T16:59:22.521Z,28.77
2019-04-29T17:01:51.290Z,32.10
2019-04-29T17:04:19.862Z,28.90
2019-04-29T17:07:11.144Z,30.70
2019-04-29T17:09:29.105Z,31.33
2019-04-29T17:11:58.560Z,30.00
2019-04-29T17:14:27.218Z,30.40
2019-04-29T17:16:57.235Z,28.83
2019-04-29T17:19:25.758Z,31.67
2019-04-29T17:22:22.034Z,31.03
2019-04-29T17:24:24.581Z,31.43
2019-04-29T17:27:11.568Z,34.77
2019-04-29T17:30:03.355Z,35.37
2019-04-29T17:32:44.628Z,38.67
2019-04-29T17:35:12.061Z,36.17
2019-04-29T17:37:40.842Z,32.30
2019-04-29T17:40:10.779Z,35.67
2019-04-29T17:42:40.966Z,31.40
2019-04-29T17:45:11.991Z,33.07
2019-04-29T17:47:47.366Z,35.47
2019-04-29T17:50:16.547Z,34.37
2019-04-29T17:52:45.218Z,34.43
2019-04-29T17:55:25.029Z,30.57
2019-04-29T17:57:55.426Z,28.03
2019-04-29T18:00:44.584Z,32.43
2019-04-29T18:03:27.511Z,28.13
2019-04-29T18:05:57.812Z,33.03
2019-04-29T18:08:28.006Z,31.13
2019-04-29T18:10:59.915Z,30.33
2019-04-29T18:13:28.601Z,28.17
2019-04-29T18:16:02.667Z,26.47
2019-04-29T18:18:49.185Z,27.53
2019-04-29T18:21:25.000Z,29.80
2019-04-29T18:23:59.333Z,27.27
2019-04-29T18:26:29.622Z,28.87
2019-04-29T18:29:03.431Z,27.17
2019-04-29T18:31:30.563Z,27.17
2019-04-29T18:34:00.037Z,26.73
2019-04-29T18:36:28.832Z,30.17
2019-04-29T18:38:57.372Z,25.20
2019-04-29T18:41:28.681Z,32.07
2019-04-29T18:44:02.898Z,25.17
2019-04-29T18:46:27.995Z,23.50
2019-04-29T18:49:02.777Z,28.77
2019-04-29T18:51:28.794Z,24.20
2019-04-29T18:53:57.197Z,22.47
2019-04-29T18:56:26.111Z,23.70
2019-04-29T18:58:55.585Z,24.13
2019-04-29T19:01:28.989Z,23.67
2019-04-29T19:03:56.128Z,25.93
2019-04-29T19:06:25.079Z,19.57
2019-04-29T19:08:54.934Z,24.03
2019-04-29T19:11:31.927Z,23.03
2019-04-29T19:13:54.223Z,25.30
2019-04-29T19:16:23.299Z,22.47
2019-04-29T19:18:56.497Z,22.40
2019-04-29T19:21:23.635Z,22.87
2019-04-29T19:23:52.591Z,25.77
2019-04-29T19:26:25.753Z,20.40
2019-04-29T19:28:53.132Z,24.97
2019-04-29T19:31:21.697Z,19.73
2019-04-29T19:33:50.275Z,22.27
2019-04-29T19:36:21.867Z,23.90
2019-04-29T19:38:49.076Z,18.80
2019-04-29T19:41:18.188Z,22.97
2019-04-29T19:43:48.447Z,20.03
2019-04-29T19:46:24.103Z,19.13
2019-04-29T19:48:47.604Z,18.70
2019-04-29T19:51:18.515Z,17.10
2019-04-29T19:53:49.464Z,16.90
2019-04-29T19:56:23.168Z,16.23
2019-04-29T19:58:47.348Z,16.83
2019-04-29T20:01:26.547Z,15.67
2019-04-29T20:03:56.854Z,14.83
2019-04-29T20:06:27.438Z,15.40
2019-04-29T20:09:00.283Z,15.30
2019-04-29T20:11:32.630Z,12.33
2019-04-29T20:14:04.823Z,16.60
2019-04-29T20:16:56.238Z,13.70
2019-04-29T20:19:37.518Z,16.20
2019-04-29T20:22:09.411Z,14.67
2019-04-29T20:24:37.114Z,21.00
2019-04-29T20:27:06.330Z,15.37
2019-04-29T20:29:38.479Z,13.30
2019-04-29T20:32:07.417Z,13.90
2019-04-29T20:34:36.203Z,17.40
2019-04-29T20:37:06.003Z,13.63
2019-04-29T20:39:35.724Z,14.10
2019-04-29T20:42:06.524Z,15.77
2019-04-29T20:44:36.877Z,15.40
2019-04-29T20:47:19.388Z,14.97
2019-04-29T20:49:38.627Z,14.50
2019-04-29T20:52:22.569Z,14.80
2019-04-29T20:54:57.589Z,15.50
2019-04-29T20:57:22.218Z,12.57
2019-04-29T20:59:51.771Z,15.47
2019-04-29T21:02:31.407Z,16.73
2019-04-29T21:04:50.918Z,14.43
2019-04-29T21:07:23.768Z,19.23
2019-04-29T21:09:49.802Z,18.67
2019-04-29T21:12:38.515Z,26.83
2019-04-29T21:15:16.156Z,17.30
2019-04-29T21:17:45.430Z,17.23
2019-04-29T21:20:15.446Z,20.07
2019-04-29T21:22:45.566Z,20.83
2019-04-29T21:25:14.147Z,19.90
2019-04-29T21:27:42.677Z,16.73
2019-04-29T21:30:11.409Z,23.23
2019-04-29T21:32:39.961Z,20.00
2019-04-29T21:35:14.180Z,23.23
2019-04-29T21:37:44.854Z,24.13
2019-04-29T21:40:28.803Z,25.23
2019-04-29T21:42:59.055Z,26.47
2019-04-29T21:45:27.570Z,32.00
2019-04-29T21:47:56.290Z,30.70
2019-04-29T21:50:29.033Z,26.47
2019-04-29T21:53:01.778Z,24.40
2019-04-29T21:55:29.131Z,23.50
2019-04-29T21:57:58.804Z,30.03
2019-04-29T22:00:25.868Z,28.83
2019-04-29T22:02:55.440Z,27.93
2019-04-29T22:05:25.093Z,31.50
2019-04-29T22:07:53.777Z,29.43
2019-04-29T22:10:27.455Z,33.10
2019-04-29T22:12:58.336Z,36.43
2019-04-29T22:15:32.174Z,34.90
2019-04-29T22:17:56.450Z,31.37
2019-04-29T22:20:23.439Z,34.80
2019-04-29T22:22:51.908Z,36.10
2019-04-29T22:25:20.348Z,27.73
2019-04-29T22:27:48.935Z,35.17
2019-04-29T22:30:18.649Z,34.10
2019-04-29T22:32:51.671Z,38.57
2019-04-29T22:35:17.659Z,34.73
2019-04-29T22:37:46.306Z,33.97
2019-04-29T22:40:15.446Z,38.33
2019-04-29T22:42:48.703Z,34.43
2019-04-29T22:45:16.884Z,38.30
2019-04-29T22:47:45.672Z,35.33
2019-04-29T22:50:14.486Z,36.33
2019-04-29T22:52:42.908Z,37.80
2019-04-29T22:55:11.519Z,35.80
2019-04-29T22:57:40.169Z,35.40
2019-04-29T23:00:09.548Z,35.27
2019-04-29T23:02:37.989Z,38.40
2019-04-29T23:05:06.420Z,37.97
2019-04-29T23:07:35.580Z,44.63
2019-04-29T23:10:06.659Z,39.63
2019-04-29T23:12:35.171Z,38.53
2019-04-29T23:15:05.776Z,40.50
2019-04-29T23:17:35.458Z,41.00
2019-04-29T23:20:09.138Z,40.30
2019-04-29T23:22:39.306Z,40.77
2019-04-29T23:25:12.103Z,40.37
2019-04-29T23:27:40.867Z,44.13
2019-04-29T23:30:09.303Z,39.13
2019-04-29T23:32:39.453Z,39.40
2019-04-29T23:35:09.769Z,47.83
2019-04-29T23:37:38.212Z,40.50
2019-04-29T23:40:06.751Z,43.67
2019-04-29T23:42:35.207Z,41.43
2019-04-29T23:45:05.315Z,42.97
2019-04-29T23:47:35.613Z,46.27
2019-04-29T23:50:04.553Z,41.87
2019-04-29T23:52:32.991Z,39.60
2019-04-29T23:55:01.723Z,39.90
2019-04-29T23:57:31.799Z,43.67
